馬公航空站 - ATIS

METAR RCQC 010530Z 21010KT 9999 FEW016 32/24 Q1004 NOSIG RMK A2966=

站台狀態:Online
最後更新:2018-08-15 05:45:01